Terminal Aerodrome Forecast
Issued by NWS Twin Cities, MN

Home | Current Version | Previous Version | Text Only | Print | Product List | Glossary Off
Versions: 1 2 3 4 5 6 7 8 9 10 11 12 13 14 15 16 17 18 19 20 21 22 23 24 25

000
FTUS43 KMPX 061139
TAFMSP
TAF
KMSP 061139Z 0612/0718 23011KT P6SM OVC018
     FM061500 24014G24KT P6SM OVC025
     FM061800 25018G30KT P6SM VCSH SCT020 OVC035
     FM062200 27016G25KT P6SM OVC030=

USA.gov is the U.S. government's official web portal to all federal, state and local government web resources and services.